Goshen, Indiana
Current Conditions -  °F | °C
As of 1:16 AM on Monday 24 Nov 2014 (Local Time) from KGSH Reporting Station
Light Rain Light Rain  
Wind Chill: 68°   Ceiling: 500
Heat Index: 68°   Visibility: 3mi
Dew Point: 49°   Wind: 7mph
Humidity: 50%   Direction: 220°SW
Pressure: 29.08"   Gusts: NA
Location:  41.59°N, 85.84°W
Report Text: KGSH 240616Z AUTO 22006KT 3SM -RA OVC005 20/09 A2908 RMK AO2 P0004 T02000094
Loading
Personal Weather Stations






























Interactive Weather Map New forecast layout! Learn more

10-Day Weather Forecast

Advertisements
Track Severe Weather on mobile